sensor_id;sensor_type;location;lat;lon;timestamp;temperature;humidity
12115;DHT22;6121;49.810;6.418;2022-10-04T00:01:31;9.80;99.90
12115;DHT22;6121;49.810;6.418;2022-10-04T00:04:09;9.80;99.90
12115;DHT22;6121;49.810;6.418;2022-10-04T00:06:37;9.80;99.90
12115;DHT22;6121;49.810;6.418;2022-10-04T00:09:13;9.80;99.90
12115;DHT22;6121;49.810;6.418;2022-10-04T00:11:43;9.70;99.90
12115;DHT22;6121;49.810;6.418;2022-10-04T00:14:23;9.60;99.90
12115;DHT22;6121;49.810;6.418;2022-10-04T00:16:50;9.50;99.90
12115;DHT22;6121;49.810;6.418;2022-10-04T00:19:24;9.70;99.90
12115;DHT22;6121;49.810;6.418;2022-10-04T00:24:27;9.50;99.90
12115;DHT22;6121;49.810;6.418;2022-10-04T00:29:37;9.40;99.90
12115;DHT22;6121;49.810;6.418;2022-10-04T00:37:11;9.30;99.90
12115;DHT22;6121;49.810;6.418;2022-10-04T00:39:39;9.40;99.90
12115;DHT22;6121;49.810;6.418;2022-10-04T00:48:13;8.90;99.90
12115;DHT22;6121;49.810;6.418;2022-10-04T00:50:43;8.80;99.90
12115;DHT22;6121;49.810;6.418;2022-10-04T00:55:59;8.90;99.90
12115;DHT22;6121;49.810;6.418;2022-10-04T00:58:34;9.20;99.90
12115;DHT22;6121;49.810;6.418;2022-10-04T01:01:02;9.40;99.90
12115;DHT22;6121;49.810;6.418;2022-10-04T01:03:38;9.50;99.90
12115;DHT22;6121;49.810;6.418;2022-10-04T01:06:05;9.50;99.90
12115;DHT22;6121;49.810;6.418;2022-10-04T01:08:40;9.30;99.90
12115;DHT22;6121;49.810;6.418;2022-10-04T01:11:17;9.30;99.90
12115;DHT22;6121;49.810;6.418;2022-10-04T01:16:27;9.50;99.90
12115;DHT22;6121;49.810;6.418;2022-10-04T01:18:53;9.40;99.90
12115;DHT22;6121;49.810;6.418;2022-10-04T01:26:36;9.00;99.90
12115;DHT22;6121;49.810;6.418;2022-10-04T01:29:24;9.10;99.90
12115;DHT22;6121;49.810;6.418;2022-10-04T01:31:56;9.20;99.90
12115;DHT22;6121;49.810;6.418;2022-10-04T01:34:25;9.20;99.90
12115;DHT22;6121;49.810;6.418;2022-10-04T01:36:53;9.30;99.90
12115;DHT22;6121;49.810;6.418;2022-10-04T01:39:21;9.30;99.90
12115;DHT22;6121;49.810;6.418;2022-10-04T01:46:53;9.00;99.90
12115;DHT22;6121;49.810;6.418;2022-10-04T01:49:25;8.80;99.90
12115;DHT22;6121;49.810;6.418;2022-10-04T01:52:06;8.90;99.90
12115;DHT22;6121;49.810;6.418;2022-10-04T01:54:43;8.80;99.90
12115;DHT22;6121;49.810;6.418;2022-10-04T01:57:15;8.70;99.90
12115;DHT22;6121;49.810;6.418;2022-10-04T02:00:20;8.80;99.90
12115;DHT22;6121;49.810;6.418;2022-10-04T02:02:54;8.80;99.90
12115;DHT22;6121;49.810;6.418;2022-10-04T02:05:50;9.00;99.90
12115;DHT22;6121;49.810;6.418;2022-10-04T02:08:24;9.10;99.90
12115;DHT22;6121;49.810;6.418;2022-10-04T02:10:51;9.20;99.90
12115;DHT22;6121;49.810;6.418;2022-10-04T02:13:20;9.10;99.90
12115;DHT22;6121;49.810;6.418;2022-10-04T02:15:48;9.10;99.90
12115;DHT22;6121;49.810;6.418;2022-10-04T02:18:16;9.20;99.90
12115;DHT22;6121;49.810;6.418;2022-10-04T02:20:43;9.10;99.90
12115;DHT22;6121;49.810;6.418;2022-10-04T02:23:10;9.10;99.90
12115;DHT22;6121;49.810;6.418;2022-10-04T02:25:37;9.10;99.90
12115;DHT22;6121;49.810;6.418;2022-10-04T02:28:04;9.10;99.90
12115;DHT22;6121;49.810;6.418;2022-10-04T02:30:38;9.10;99.90
12115;DHT22;6121;49.810;6.418;2022-10-04T02:33:05;9.10;99.90
12115;DHT22;6121;49.810;6.418;2022-10-04T02:35:33;9.10;99.90
12115;DHT22;6121;49.810;6.418;2022-10-04T02:38:13;8.90;99.90
12115;DHT22;6121;49.810;6.418;2022-10-04T02:43:20;9.00;99.90
12115;DHT22;6121;49.810;6.418;2022-10-04T02:45:51;9.00;99.90
12115;DHT22;6121;49.810;6.418;2022-10-04T02:48:33;9.00;99.90
12115;DHT22;6121;49.810;6.418;2022-10-04T02:51:27;8.90;99.90
12115;DHT22;6121;49.810;6.418;2022-10-04T02:54:17;9.00;99.90
12115;DHT22;6121;49.810;6.418;2022-10-04T02:56:50;9.00;99.90
12115;DHT22;6121;49.810;6.418;2022-10-04T02:59:19;8.70;99.90
12115;DHT22;6121;49.810;6.418;2022-10-04T03:01:50;8.80;99.90
12115;DHT22;6121;49.810;6.418;2022-10-04T03:04:17;8.90;99.90
12115;DHT22;6121;49.810;6.418;2022-10-04T03:06:45;8.90;99.90
12115;DHT22;6121;49.810;6.418;2022-10-04T03:09:13;8.90;99.90
12115;DHT22;6121;49.810;6.418;2022-10-04T03:11:39;8.90;99.90
12115;DHT22;6121;49.810;6.418;2022-10-04T03:14:10;8.90;99.90
12115;DHT22;6121;49.810;6.418;2022-10-04T03:16:41;8.90;99.90
12115;DHT22;6121;49.810;6.418;2022-10-04T03:19:09;8.90;99.90
12115;DHT22;6121;49.810;6.418;2022-10-04T03:21:36;8.90;99.90
12115;DHT22;6121;49.810;6.418;2022-10-04T03:24:04;8.90;99.90
12115;DHT22;6121;49.810;6.418;2022-10-04T03:26:41;8.90;99.90
12115;DHT22;6121;49.810;6.418;2022-10-04T03:29:10;8.90;99.90
12115;DHT22;6121;49.810;6.418;2022-10-04T03:31:45;8.70;99.90
12115;DHT22;6121;49.810;6.418;2022-10-04T03:34:20;8.60;99.90
12115;DHT22;6121;49.810;6.418;2022-10-04T03:36:48;8.60;99.90
12115;DHT22;6121;49.810;6.418;2022-10-04T03:39:36;8.60;99.90
12115;DHT22;6121;49.810;6.418;2022-10-04T03:42:06;8.50;99.90
12115;DHT22;6121;49.810;6.418;2022-10-04T03:44:35;8.60;99.90
12115;DHT22;6121;49.810;6.418;2022-10-04T03:47:28;8.70;99.90
12115;DHT22;6121;49.810;6.418;2022-10-04T03:49:53;8.70;99.90
12115;DHT22;6121;49.810;6.418;2022-10-04T03:52:41;8.70;99.90
12115;DHT22;6121;49.810;6.418;2022-10-04T03:55:11;8.60;99.90
12115;DHT22;6121;49.810;6.418;2022-10-04T03:57:39;8.50;99.90
12115;DHT22;6121;49.810;6.418;2022-10-04T04:00:06;8.50;99.90
12115;DHT22;6121;49.810;6.418;2022-10-04T04:02:38;8.50;99.90
12115;DHT22;6121;49.810;6.418;2022-10-04T04:05:17;8.40;99.90
12115;DHT22;6121;49.810;6.418;2022-10-04T04:10:33;8.60;99.90
12115;DHT22;6121;49.810;6.418;2022-10-04T04:15:44;8.60;99.90
12115;DHT22;6121;49.810;6.418;2022-10-04T04:18:23;8.60;99.90
12115;DHT22;6121;49.810;6.418;2022-10-04T04:20:51;8.60;99.90
12115;DHT22;6121;49.810;6.418;2022-10-04T04:23:31;8.60;99.90
12115;DHT22;6121;49.810;6.418;2022-10-04T04:28:51;8.50;99.90
12115;DHT22;6121;49.810;6.418;2022-10-04T04:31:28;8.60;99.90
12115;DHT22;6121;49.810;6.418;2022-10-04T04:34:04;8.60;99.90
12115;DHT22;6121;49.810;6.418;2022-10-04T04:36:39;8.70;99.90
12115;DHT22;6121;49.810;6.418;2022-10-04T04:44:54;8.40;99.90
12115;DHT22;6121;49.810;6.418;2022-10-04T04:47:40;8.60;99.90
12115;DHT22;6121;49.810;6.418;2022-10-04T04:50:12;8.50;99.90
12115;DHT22;6121;49.810;6.418;2022-10-04T04:52:38;8.60;99.90
12115;DHT22;6121;49.810;6.418;2022-10-04T04:55:06;8.60;99.90
12115;DHT22;6121;49.810;6.418;2022-10-04T04:57:40;8.60;99.90
12115;DHT22;6121;49.810;6.418;2022-10-04T05:00:16;8.70;99.90
12115;DHT22;6121;49.810;6.418;2022-10-04T05:02:51;8.60;99.90
12115;DHT22;6121;49.810;6.418;2022-10-04T05:05:19;8.60;99.90
12115;DHT22;6121;49.810;6.418;2022-10-04T05:07:46;8.60;99.90
12115;DHT22;6121;49.810;6.418;2022-10-04T05:10:42;8.50;99.90
12115;DHT22;6121;49.810;6.418;2022-10-04T05:13:09;8.50;99.90
12115;DHT22;6121;49.810;6.418;2022-10-04T05:15:38;8.50;99.90
12115;DHT22;6121;49.810;6.418;2022-10-04T05:20:52;8.40;99.90
12115;DHT22;6121;49.810;6.418;2022-10-04T05:23:18;8.40;99.90
12115;DHT22;6121;49.810;6.418;2022-10-04T05:25:44;8.40;99.90
12115;DHT22;6121;49.810;6.418;2022-10-04T05:28:13;8.40;99.90
12115;DHT22;6121;49.810;6.418;2022-10-04T05:39:04;8.40;99.90
12115;DHT22;6121;49.810;6.418;2022-10-04T05:41:41;8.40;99.90
12115;DHT22;6121;49.810;6.418;2022-10-04T05:44:19;8.40;99.90
12115;DHT22;6121;49.810;6.418;2022-10-04T05:46:48;8.50;99.90
12115;DHT22;6121;49.810;6.418;2022-10-04T05:49:14;8.40;99.90
12115;DHT22;6121;49.810;6.418;2022-10-04T05:51:58;8.50;99.90
12115;DHT22;6121;49.810;6.418;2022-10-04T05:54:27;8.40;99.90
12115;DHT22;6121;49.810;6.418;2022-10-04T06:00:10;8.50;99.90
12115;DHT22;6121;49.810;6.418;2022-10-04T06:02:48;8.50;99.90
12115;DHT22;6121;49.810;6.418;2022-10-04T06:05:31;8.50;99.90
12115;DHT22;6121;49.810;6.418;2022-10-04T06:10:57;8.60;99.90
12115;DHT22;6121;49.810;6.418;2022-10-04T06:13:26;8.60;99.90
12115;DHT22;6121;49.810;6.418;2022-10-04T06:22:14;8.40;99.90
12115;DHT22;6121;49.810;6.418;2022-10-04T06:24:43;8.40;99.90
12115;DHT22;6121;49.810;6.418;2022-10-04T06:29:48;8.30;99.90
12115;DHT22;6121;49.810;6.418;2022-10-04T06:32:41;8.30;99.90
12115;DHT22;6121;49.810;6.418;2022-10-04T06:41:25;8.20;99.90
12115;DHT22;6121;49.810;6.418;2022-10-04T06:46:49;8.40;99.90
12115;DHT22;6121;49.810;6.418;2022-10-04T06:54:59;8.40;99.90
12115;DHT22;6121;49.810;6.418;2022-10-04T06:57:40;8.30;99.90
12115;DHT22;6121;49.810;6.418;2022-10-04T07:00:23;8.30;99.90
12115;DHT22;6121;49.810;6.418;2022-10-04T07:03:16;8.30;99.90
12115;DHT22;6121;49.810;6.418;2022-10-04T07:05:53;8.30;99.90
12115;DHT22;6121;49.810;6.418;2022-10-04T07:08:46;8.30;99.90
12115;DHT22;6121;49.810;6.418;2022-10-04T07:21:52;8.60;99.90
12115;DHT22;6121;49.810;6.418;2022-10-04T07:27:09;8.70;99.90
12115;DHT22;6121;49.810;6.418;2022-10-04T07:29:39;8.60;99.90
12115;DHT22;6121;49.810;6.418;2022-10-04T07:32:13;8.60;99.90
12115;DHT22;6121;49.810;6.418;2022-10-04T07:34:53;8.60;99.90
12115;DHT22;6121;49.810;6.418;2022-10-04T07:37:20;8.60;99.90
12115;DHT22;6121;49.810;6.418;2022-10-04T07:39:54;8.60;99.90
12115;DHT22;6121;49.810;6.418;2022-10-04T07:42:39;8.70;99.90
12115;DHT22;6121;49.810;6.418;2022-10-04T07:47:42;8.60;99.90
12115;DHT22;6121;49.810;6.418;2022-10-04T07:50:30;8.50;99.90
12115;DHT22;6121;49.810;6.418;2022-10-04T07:56:14;8.60;99.90
12115;DHT22;6121;49.810;6.418;2022-10-04T07:58:52;8.80;99.90
12115;DHT22;6121;49.810;6.418;2022-10-04T08:01:37;8.80;99.90
12115;DHT22;6121;49.810;6.418;2022-10-04T08:04:17;8.90;99.90
12115;DHT22;6121;49.810;6.418;2022-10-04T08:07:00;8.90;99.90
12115;DHT22;6121;49.810;6.418;2022-10-04T08:09:51;8.90;99.90
12115;DHT22;6121;49.810;6.418;2022-10-04T08:12:49;9.00;99.90
12115;DHT22;6121;49.810;6.418;2022-10-04T08:15:27;8.90;99.90
12115;DHT22;6121;49.810;6.418;2022-10-04T08:18:10;9.00;99.90
12115;DHT22;6121;49.810;6.418;2022-10-04T08:20:47;9.10;99.90
12115;DHT22;6121;49.810;6.418;2022-10-04T08:29:05;9.10;99.90
12115;DHT22;6121;49.810;6.418;2022-10-04T08:49:08;10.40;99.90
12115;DHT22;6121;49.810;6.418;2022-10-04T08:54:50;10.70;99.90
12115;DHT22;6121;49.810;6.418;2022-10-04T09:00:27;11.00;99.90
12115;DHT22;6121;49.810;6.418;2022-10-04T09:23:17;13.10;99.90
12115;DHT22;6121;49.810;6.418;2022-10-04T09:34:55;14.80;99.90
12115;DHT22;6121;49.810;6.418;2022-10-04T09:41:21;23.30;99.00
12115;DHT22;6121;49.810;6.418;2022-10-04T09:48:27;28.80;82.50
12115;DHT22;6121;49.810;6.418;2022-10-04T09:51:22;29.00;80.60
12115;DHT22;6121;49.810;6.418;2022-10-04T09:53:57;31.00;73.80
12115;DHT22;6121;49.810;6.418;2022-10-04T09:59:15;31.70;64.90
12115;DHT22;6121;49.810;6.418;2022-10-04T10:04:42;30.00;62.70
12115;DHT22;6121;49.810;6.418;2022-10-04T10:07:35;31.70;63.20
12115;DHT22;6121;49.810;6.418;2022-10-04T10:13:37;37.40;53.10
12115;DHT22;6121;49.810;6.418;2022-10-04T10:16:34;38.30;50.40
12115;DHT22;6121;49.810;6.418;2022-10-04T10:27:48;41.80;44.40
12115;DHT22;6121;49.810;6.418;2022-10-04T10:36:34;43.30;40.70
12115;DHT22;6121;49.810;6.418;2022-10-04T10:42:38;44.20;38.80
12115;DHT22;6121;49.810;6.418;2022-10-04T10:45:28;44.50;38.50
12115;DHT22;6121;49.810;6.418;2022-10-04T10:48:15;44.80;36.70
12115;DHT22;6121;49.810;6.418;2022-10-04T10:56:54;42.10;38.60
12115;DHT22;6121;49.810;6.418;2022-10-04T11:07:43;43.30;35.80
12115;DHT22;6121;49.810;6.418;2022-10-04T11:13:38;34.40;43.50
12115;DHT22;6121;49.810;6.418;2022-10-04T11:28:30;31.00;48.40
12115;DHT22;6121;49.810;6.418;2022-10-04T11:40:59;44.50;37.80
12115;DHT22;6121;49.810;6.418;2022-10-04T11:43:31;44.20;35.60
12115;DHT22;6121;49.810;6.418;2022-10-04T11:46:11;45.40;35.30
12115;DHT22;6121;49.810;6.418;2022-10-04T11:54:39;45.40;33.70
12115;DHT22;6121;49.810;6.418;2022-10-04T11:57:25;45.50;33.80
12115;DHT22;6121;49.810;6.418;2022-10-04T12:00:09;46.00;33.70
12115;DHT22;6121;49.810;6.418;2022-10-04T12:11:23;45.40;33.10
12115;DHT22;6121;49.810;6.418;2022-10-04T12:20:26;46.10;32.60
12115;DHT22;6121;49.810;6.418;2022-10-04T12:26:18;46.20;32.00
12115;DHT22;6121;49.810;6.418;2022-10-04T12:31:57;45.40;32.50
12115;DHT22;6121;49.810;6.418;2022-10-04T12:34:49;45.10;32.60
12115;DHT22;6121;49.810;6.418;2022-10-04T12:37:29;43.80;32.60
12115;DHT22;6121;49.810;6.418;2022-10-04T12:42:52;32.60;41.20
12115;DHT22;6121;49.810;6.418;2022-10-04T12:48:20;27.00;51.40
12115;DHT22;6121;49.810;6.418;2022-10-04T12:57:19;24.10;59.70
12115;DHT22;6121;49.810;6.418;2022-10-04T13:07:43;22.70;62.70
12115;DHT22;6121;49.810;6.418;2022-10-04T13:13:08;22.20;64.10
12115;DHT22;6121;49.810;6.418;2022-10-04T13:19:10;22.00;66.20
12115;DHT22;6121;49.810;6.418;2022-10-04T13:24:09;21.80;68.00
12115;DHT22;6121;49.810;6.418;2022-10-04T13:27:02;21.70;68.00
12115;DHT22;6121;49.810;6.418;2022-10-04T13:29:34;21.70;68.90
12115;DHT22;6121;49.810;6.418;2022-10-04T13:32:13;21.70;69.50
12115;DHT22;6121;49.810;6.418;2022-10-04T13:41:08;21.20;69.20
12115;DHT22;6121;49.810;6.418;2022-10-04T13:49:47;21.10;72.40
12115;DHT22;6121;49.810;6.418;2022-10-04T14:01:28;20.90;74.70
12115;DHT22;6121;49.810;6.418;2022-10-04T14:04:29;20.80;74.60
12115;DHT22;6121;49.810;6.418;2022-10-04T14:12:36;20.50;77.40
12115;DHT22;6121;49.810;6.418;2022-10-04T14:15:28;20.40;76.70
12115;DHT22;6121;49.810;6.418;2022-10-04T14:21:25;20.50;76.70
12115;DHT22;6121;49.810;6.418;2022-10-04T14:25:01;20.40;76.40
12115;DHT22;6121;49.810;6.418;2022-10-04T14:27:03;20.40;76.90
12115;DHT22;6121;49.810;6.418;2022-10-04T14:32:38;20.10;78.60
12115;DHT22;6121;49.810;6.418;2022-10-04T14:52:20;20.00;79.90
12115;DHT22;6121;49.810;6.418;2022-10-04T14:55:31;20.10;80.40
12115;DHT22;6121;49.810;6.418;2022-10-04T14:58:22;20.10;80.20
12115;DHT22;6121;49.810;6.418;2022-10-04T15:06:46;19.90;81.00
12115;DHT22;6121;49.810;6.418;2022-10-04T15:09:24;19.80;80.70
12115;DHT22;6121;49.810;6.418;2022-10-04T15:11:58;19.70;81.90
12115;DHT22;6121;49.810;6.418;2022-10-04T15:14:35;19.70;83.10
12115;DHT22;6121;49.810;6.418;2022-10-04T15:17:10;19.70;83.70
12115;DHT22;6121;49.810;6.418;2022-10-04T15:22:43;19.60;85.10
12115;DHT22;6121;49.810;6.418;2022-10-04T15:31:25;19.40;85.80
12115;DHT22;6121;49.810;6.418;2022-10-04T15:42:24;19.40;86.50
12115;DHT22;6121;49.810;6.418;2022-10-04T15:50:33;18.90;89.90
12115;DHT22;6121;49.810;6.418;2022-10-04T16:06:49;18.60;91.90
12115;DHT22;6121;49.810;6.418;2022-10-04T16:12:27;18.50;92.80
12115;DHT22;6121;49.810;6.418;2022-10-04T16:15:19;18.40;93.30
12115;DHT22;6121;49.810;6.418;2022-10-04T16:21:06;18.20;95.30
12115;DHT22;6121;49.810;6.418;2022-10-04T16:23:39;18.10;96.50
12115;DHT22;6121;49.810;6.418;2022-10-04T16:31:46;17.80;99.30
12115;DHT22;6121;49.810;6.418;2022-10-04T16:43:09;17.30;99.90
12115;DHT22;6121;49.810;6.418;2022-10-04T16:48:25;17.20;99.90
12115;DHT22;6121;49.810;6.418;2022-10-04T17:05:02;16.40;99.90
12115;DHT22;6121;49.810;6.418;2022-10-04T17:16:10;16.10;99.90
12115;DHT22;6121;49.810;6.418;2022-10-04T17:21:10;15.90;99.90
12115;DHT22;6121;49.810;6.418;2022-10-04T17:24:03;15.70;99.90
12115;DHT22;6121;49.810;6.418;2022-10-04T17:29:35;15.50;99.90
12115;DHT22;6121;49.810;6.418;2022-10-04T17:32:17;15.50;99.90
12115;DHT22;6121;49.810;6.418;2022-10-04T17:35:30;15.50;99.90
12115;DHT22;6121;49.810;6.418;2022-10-04T17:37:59;15.50;99.90
12115;DHT22;6121;49.810;6.418;2022-10-04T17:40:36;15.30;99.90
12115;DHT22;6121;49.810;6.418;2022-10-04T17:43:32;15.30;99.90
12115;DHT22;6121;49.810;6.418;2022-10-04T17:51:47;14.90;99.90
12115;DHT22;6121;49.810;6.418;2022-10-04T18:00:24;14.70;99.90
12115;DHT22;6121;49.810;6.418;2022-10-04T18:05:55;14.30;99.90
12115;DHT22;6121;49.810;6.418;2022-10-04T18:11:13;14.50;99.90
12115;DHT22;6121;49.810;6.418;2022-10-04T18:14:01;14.40;99.90
12115;DHT22;6121;49.810;6.418;2022-10-04T18:16:52;14.50;99.90
12115;DHT22;6121;49.810;6.418;2022-10-04T18:22:13;14.20;99.90
12115;DHT22;6121;49.810;6.418;2022-10-04T18:24:44;14.20;99.90
12115;DHT22;6121;49.810;6.418;2022-10-04T18:27:22;14.10;99.90
12115;DHT22;6121;49.810;6.418;2022-10-04T18:30:13;14.00;99.90
12115;DHT22;6121;49.810;6.418;2022-10-04T18:32:45;14.00;99.90
12115;DHT22;6121;49.810;6.418;2022-10-04T18:35:32;14.00;99.90
12115;DHT22;6121;49.810;6.418;2022-10-04T18:40:40;13.90;99.90
12115;DHT22;6121;49.810;6.418;2022-10-04T18:43:41;13.90;99.90
12115;DHT22;6121;49.810;6.418;2022-10-04T18:46:16;13.70;99.90
12115;DHT22;6121;49.810;6.418;2022-10-04T18:49:06;13.60;99.90
12115;DHT22;6121;49.810;6.418;2022-10-04T18:57:36;13.50;99.90
12115;DHT22;6121;49.810;6.418;2022-10-04T19:00:23;13.50;99.90
12115;DHT22;6121;49.810;6.418;2022-10-04T19:03:30;13.50;99.90
12115;DHT22;6121;49.810;6.418;2022-10-04T19:06:29;13.40;99.90
12115;DHT22;6121;49.810;6.418;2022-10-04T19:11:59;13.30;99.90
12115;DHT22;6121;49.810;6.418;2022-10-04T19:17:32;13.20;99.90
12115;DHT22;6121;49.810;6.418;2022-10-04T19:20:14;13.10;99.90
12115;DHT22;6121;49.810;6.418;2022-10-04T19:23:08;13.00;99.90
12115;DHT22;6121;49.810;6.418;2022-10-04T19:25:45;12.90;99.90
12115;DHT22;6121;49.810;6.418;2022-10-04T19:28:25;12.90;99.90
12115;DHT22;6121;49.810;6.418;2022-10-04T19:33:46;12.80;99.90
12115;DHT22;6121;49.810;6.418;2022-10-04T19:44:31;12.50;99.90
12115;DHT22;6121;49.810;6.418;2022-10-04T19:48:00;12.50;99.90
12115;DHT22;6121;49.810;6.418;2022-10-04T19:50:16;12.60;99.90
12115;DHT22;6121;49.810;6.418;2022-10-04T19:55:31;12.50;99.90
12115;DHT22;6121;49.810;6.418;2022-10-04T19:58:34;12.50;99.90
12115;DHT22;6121;49.810;6.418;2022-10-04T20:01:10;12.40;99.90
12115;DHT22;6121;49.810;6.418;2022-10-04T20:03:37;12.30;99.90
12115;DHT22;6121;49.810;6.418;2022-10-04T20:06:03;12.30;99.90
12115;DHT22;6121;49.810;6.418;2022-10-04T20:08:49;12.30;99.90
12115;DHT22;6121;49.810;6.418;2022-10-04T20:11:21;12.10;99.90
12115;DHT22;6121;49.810;6.418;2022-10-04T20:22:17;11.90;99.90
12115;DHT22;6121;49.810;6.418;2022-10-04T20:35:04;11.40;99.90
12115;DHT22;6121;49.810;6.418;2022-10-04T20:45:51;11.20;99.90
12115;DHT22;6121;49.810;6.418;2022-10-04T20:48:22;11.20;99.90
12115;DHT22;6121;49.810;6.418;2022-10-04T20:50:49;11.20;99.90
12115;DHT22;6121;49.810;6.418;2022-10-04T20:53:19;11.30;99.90
12115;DHT22;6121;49.810;6.418;2022-10-04T20:55:47;11.20;99.90
12115;DHT22;6121;49.810;6.418;2022-10-04T20:58:32;11.10;99.90
12115;DHT22;6121;49.810;6.418;2022-10-04T21:01:23;11.00;99.90
12115;DHT22;6121;49.810;6.418;2022-10-04T21:04:26;11.10;99.90
12115;DHT22;6121;49.810;6.418;2022-10-04T21:06:57;11.20;99.90
12115;DHT22;6121;49.810;6.418;2022-10-04T21:09:24;11.10;99.90
12115;DHT22;6121;49.810;6.418;2022-10-04T21:11:54;11.00;99.90
12115;DHT22;6121;49.810;6.418;2022-10-04T21:14:30;11.10;99.90
12115;DHT22;6121;49.810;6.418;2022-10-04T21:17:01;11.20;99.90
12115;DHT22;6121;49.810;6.418;2022-10-04T21:24:55;11.10;99.90
12115;DHT22;6121;49.810;6.418;2022-10-04T21:27:37;10.80;99.90
12115;DHT22;6121;49.810;6.418;2022-10-04T21:30:05;10.80;99.90
12115;DHT22;6121;49.810;6.418;2022-10-04T21:32:34;10.90;99.90
12115;DHT22;6121;49.810;6.418;2022-10-04T21:35:00;10.80;99.90
12115;DHT22;6121;49.810;6.418;2022-10-04T21:37:26;10.80;99.90
12115;DHT22;6121;49.810;6.418;2022-10-04T21:39:52;10.70;99.90
12115;DHT22;6121;49.810;6.418;2022-10-04T21:42:17;10.70;99.90
12115;DHT22;6121;49.810;6.418;2022-10-04T21:44:43;10.70;99.90
12115;DHT22;6121;49.810;6.418;2022-10-04T21:47:09;10.70;99.90
12115;DHT22;6121;49.810;6.418;2022-10-04T21:49:35;10.70;99.90
12115;DHT22;6121;49.810;6.418;2022-10-04T21:52:00;10.80;99.90
12115;DHT22;6121;49.810;6.418;2022-10-04T21:54:26;10.90;99.90
12115;DHT22;6121;49.810;6.418;2022-10-04T21:56:52;10.80;99.90
12115;DHT22;6121;49.810;6.418;2022-10-04T21:59:18;10.90;99.90
12115;DHT22;6121;49.810;6.418;2022-10-04T22:01:44;10.90;99.90
12115;DHT22;6121;49.810;6.418;2022-10-04T22:04:10;10.50;99.90
12115;DHT22;6121;49.810;6.418;2022-10-04T22:06:36;10.40;99.90
12115;DHT22;6121;49.810;6.418;2022-10-04T22:09:01;10.50;99.90
12115;DHT22;6121;49.810;6.418;2022-10-04T22:11:27;10.50;99.90
12115;DHT22;6121;49.810;6.418;2022-10-04T22:13:53;10.60;99.90
12115;DHT22;6121;49.810;6.418;2022-10-04T22:16:18;10.50;99.90
12115;DHT22;6121;49.810;6.418;2022-10-04T22:18:44;10.60;99.90
12115;DHT22;6121;49.810;6.418;2022-10-04T22:21:09;10.70;99.90
12115;DHT22;6121;49.810;6.418;2022-10-04T22:23:38;10.70;99.90
12115;DHT22;6121;49.810;6.418;2022-10-04T22:26:18;10.70;99.90
12115;DHT22;6121;49.810;6.418;2022-10-04T22:28:53;10.70;99.90
12115;DHT22;6121;49.810;6.418;2022-10-04T22:31:23;10.70;99.90
12115;DHT22;6121;49.810;6.418;2022-10-04T22:33:49;10.60;99.90
12115;DHT22;6121;49.810;6.418;2022-10-04T22:38:57;10.40;99.90
12115;DHT22;6121;49.810;6.418;2022-10-04T22:41:32;10.30;99.90
12115;DHT22;6121;49.810;6.418;2022-10-04T22:44:01;10.30;99.90
12115;DHT22;6121;49.810;6.418;2022-10-04T22:46:37;10.20;99.90
12115;DHT22;6121;49.810;6.418;2022-10-04T22:49:12;10.20;99.90
12115;DHT22;6121;49.810;6.418;2022-10-04T22:51:39;10.10;99.90
12115;DHT22;6121;49.810;6.418;2022-10-04T22:54:16;10.00;99.90
12115;DHT22;6121;49.810;6.418;2022-10-04T22:56:43;10.10;99.90
12115;DHT22;6121;49.810;6.418;2022-10-04T22:59:10;10.30;99.90
12115;DHT22;6121;49.810;6.418;2022-10-04T23:01:39;10.40;99.90
12115;DHT22;6121;49.810;6.418;2022-10-04T23:04:22;10.40;99.90
12115;DHT22;6121;49.810;6.418;2022-10-04T23:06:48;10.40;99.90
12115;DHT22;6121;49.810;6.418;2022-10-04T23:09:14;10.40;99.90
12115;DHT22;6121;49.810;6.418;2022-10-04T23:11:41;10.40;99.90
12115;DHT22;6121;49.810;6.418;2022-10-04T23:14:06;10.40;99.90
12115;DHT22;6121;49.810;6.418;2022-10-04T23:16:32;10.40;99.90
12115;DHT22;6121;49.810;6.418;2022-10-04T23:19:21;10.40;99.90
12115;DHT22;6121;49.810;6.418;2022-10-04T23:21:47;10.50;99.90
12115;DHT22;6121;49.810;6.418;2022-10-04T23:24:14;10.20;99.90
12115;DHT22;6121;49.810;6.418;2022-10-04T23:26:42;10.20;99.90
12115;DHT22;6121;49.810;6.418;2022-10-04T23:29:26;10.20;99.90
12115;DHT22;6121;49.810;6.418;2022-10-04T23:31:54;10.10;99.90
12115;DHT22;6121;49.810;6.418;2022-10-04T23:34:33;10.30;99.90
12115;DHT22;6121;49.810;6.418;2022-10-04T23:36:59;10.30;99.90
12115;DHT22;6121;49.810;6.418;2022-10-04T23:39:31;10.30;99.90
12115;DHT22;6121;49.810;6.418;2022-10-04T23:41:58;10.30;99.90
12115;DHT22;6121;49.810;6.418;2022-10-04T23:44:32;10.20;99.90
12115;DHT22;6121;49.810;6.418;2022-10-04T23:46:58;10.20;99.90
12115;DHT22;6121;49.810;6.418;2022-10-04T23:49:24;10.00;99.90
12115;DHT22;6121;49.810;6.418;2022-10-04T23:51:56;10.10;99.90
12115;DHT22;6121;49.810;6.418;2022-10-04T23:54:21;10.10;99.90
12115;DHT22;6121;49.810;6.418;2022-10-04T23:56:47;9.90;99.90
12115;DHT22;6121;49.810;6.418;2022-10-04T23:59:16;9.90;99.90
